Terminal Aerodrome Forecast
Issued by NWS

Home | Current Version | Previous Version | Text Only | Print | Product List | Glossary On
Versions: 1 2 3 4 5 6 7 8 9 10 11 12 13 14 15 16 17 18 19 20 21 22 23
000
FTUS41 KGYX 261728
TAFAUG
TAF
KAUG 261728Z 2618/2718 01013G20KT P6SM -SHSN BKN050 OVC080
      TEMPO 2618/2620 1SM -SN BR BKN015 OVC040
     FM262000 01014G24KT 1/2SM SN FZFG VV006
     FM262200 01016G26KT 1/4SM +SN FZFG VV001
     FM270700 36018G28KT 1SM -SN BLSN BR OVC005
     FM271000 35014G22KT 5SM -SHSN BLSN BR BKN020 OVC040
     FM271400 34010KT P6SM BKN040 OVC080=

USA.gov is the U.S. government's official web portal to all federal, state and local government web resources and services.